Alexandria Bay, NY (13607)

4:17 PM EDT on July 25, 2016 (GMT -0400)
American Narrows Entrance | | Change Station

Elev 240 ft 44.27 °N, 76.03 °W | Updated 23 seconds ago

Mostly Cloudy
Mostly Cloudy
75.7 °F
Feels Like 76 °F
N
4.0
Wind Variable Wind from SSE
Gusts 4.9 mph

Today
High -- | Low -- °F
--% Chance of Precip.
Yesterday
High -- | Low -- °F
Precip. -- in
Pressure 29.81 in
Visibility 10.0 miles
Clouds Mostly Cloudy 2400 ft
Mostly Cloudy 3200 ft
Heat Index 76 °F
Dew Point 70 °F
Humidity 83%
Rainfall 0.04 in
Snow Depth Not available.
5:43 AM 8:35 PM
Waning Gibbous, 63% visible
SPECI KGTB 252013Z AUTO 22013KT 10SM BKN024 BKN032 25/21 A2981 RMK AO2 CIG 024V032 BKN024 V SCT
Pressure 29.81 in
Visibility 10.0 miles
Clouds Mostly Cloudy 2400 ft
Mostly Cloudy 3200 ft
Heat Index 76 °F
Dew Point 70 °F
Humidity 83%
Rainfall 0.04 in
Snow Depth Not available.
5:43 AM 8:35 PM
Waning Gibbous, 63% visible
SPECI KGTB 252013Z AUTO 22013KT 10SM BKN024 BKN032 25/21 A2981 RMK AO2 CIG 024V032 BKN024 V SCT
Record highs are possible for parts of the Northeast Monday and Tuesday, as parts of the central U.S. take a little breather from the worst of summer's dog day heat.

Expansive high pressure in the upper atmosphere will focus on parts of the East and West this week, sending heat indices well into the triple digits from the Mid-Atlantic states into the South.

10-Day Weather Forecast

Almanac

Astronomy

Jul. 25, 2016 Rise Set
Actual Time
Civil Twilight
Nautical Twilight
Astronomical Twilight
Moon
Length of Visible Light
Length of Day
Tomorrow will be .
, % of the Moon is Illuminated

Today's Extremes

State Highs State Lows

Community

WunderPhotos

Upload Photos

1,927,405 photos uploaded!

WunderBlog® & News

Nearby

Air Quality

  Air Quality AQ Index Pollutant
Not available.

Snow Depth

Station Depth Elevation

Earthquake Activity

City Distance Mag. Time & Date
Minimum magnitude displayed is 2.5.

Coastal Water Temperatures

Place Temperature

Stations

Nearby Weather Stations

Station Location Temp. Windchill Dew Point Humidity Wind Precip. Elev Updated Type
                   

Watches & Warnings

There are currently no watches in effect.